Time;durP1;ratioP1;P1;durP2;ratioP2;P2;SDS_P1;SDS_P2;PMS_P1;PMS_P2;Temp;Humidity;BMP_temperature;BMP_pressure;BME280_temperature;BME280_humidity;BME280_pressure;Samples;Min_cycle;Max_cycle;Signal;HPM_P1;HPM_P2
2022/02/14 00:00:23;;;;;;;10.07;5.88;;;;;;;-139.48;100.00;61774.03;5033708;28;20389;-73
2022/02/14 00:03:07;;;;;;;9.77;5.75;;;;;;;-139.48;100.00;61774.03;5033410;28;20084;-72
2022/02/14 00:05:51;;;;;;;;;;;;;;;-139.48;100.00;61774.03;5033419;28;20095;-73
2022/02/14 00:08:34;;;;;;;14.20;6.90;;;;;;;-139.48;100.00;61774.03;5017899;28;20387;-73
2022/02/14 00:11:19;;;;;;;17.98;7.82;;;;;;;-139.48;100.00;61774.03;5033017;28;20047;-73
2022/02/14 00:14:02;;;;;;;12.77;7.38;;;;;;;-139.48;100.00;61774.03;5004097;28;20099;-72
2022/02/14 00:16:46;;;;;;;;;;;;;;;-139.48;100.00;61774.03;5018297;28;20122;-73
2022/02/14 00:19:30;;;;;;;15.30;8.60;;;;;;;-139.48;100.00;61774.03;5033172;28;19924;-73
2022/02/14 00:22:14;;;;;;;21.20;11.13;;;;;;;-139.48;100.00;61774.03;5017866;28;20064;-71
2022/02/14 00:24:58;;;;;;;18.25;9.80;;;;;;;-139.48;100.00;61774.03;5032816;28;20057;-73
2022/02/14 00:27:42;;;;;;;21.52;10.82;;;;;;;-139.48;100.00;61774.03;5018022;28;20179;-72
2022/02/14 00:30:26;;;;;;;23.10;11.68;;;;;;;-139.48;100.00;61774.03;5032785;28;20076;-72
2022/02/14 00:33:09;;;;;;;22.45;9.25;;;;;;;-139.48;100.00;61774.03;5033220;28;20052;-73
2022/02/14 00:35:53;;;;;;;14.50;7.95;;;;;;;-139.48;100.00;61774.03;5017865;28;20090;-73
2022/02/14 00:38:37;;;;;;;13.23;6.93;;;;;;;-139.48;100.00;61774.03;5032733;28;20060;-72
2022/02/14 00:41:21;;;;;;;19.25;8.43;;;;;;;-139.48;100.00;61774.03;5017712;28;20052;-73
2022/02/14 00:44:05;;;;;;;22.75;8.75;;;;;;;-139.48;100.00;61774.03;5003644;28;20137;-72
2022/02/14 00:46:49;;;;;;;14.02;8.20;;;;;;;-139.48;100.00;61774.03;5017594;28;20174;-73
2022/02/14 00:49:33;;;;;;;11.23;7.40;;;;;;;-139.48;100.00;61774.03;5017562;28;20072;-72
2022/02/14 00:52:17;;;;;;;;;;;;;;;-139.48;100.00;61774.03;5004363;28;20102;-73
2022/02/14 00:55:01;;;;;;;10.77;5.93;;;;;;;-139.48;100.00;61774.03;5032748;28;19966;-73
2022/02/14 00:57:47;;;;;;;11.07;6.28;;;;;;;-139.48;100.00;61774.03;5017969;28;20072;-73
2022/02/14 01:00:31;;;;;;;14.55;6.75;;;;;;;-139.48;100.00;61774.03;5032400;28;20528;-72
2022/02/14 01:03:15;;;;;;;11.23;6.57;;;;;;;-139.48;100.00;61774.03;5032962;28;20088;-73
2022/02/14 01:05:58;;;;;;;11.57;7.07;;;;;;;-139.48;100.00;61774.03;5017516;28;20135;-72
2022/02/14 01:08:42;;;;;;;14.32;8.02;;;;;;;-139.48;100.00;61774.03;5032566;28;20064;-70
2022/02/14 01:11:26;;;;;;;17.95;8.50;;;;;;;-139.48;100.00;61774.03;5017580;28;20044;-73
2022/02/14 01:14:11;;;;;;;;;;;;;;;-139.48;100.00;61774.03;5018007;28;20496;-73
2022/02/14 01:16:57;;;;;;;12.38;7.57;;;;;;;-139.48;100.00;61774.03;5032507;28;20089;-73
2022/02/14 01:19:42;;;;;;;20.52;10.63;;;;;;;-139.48;100.00;61774.03;5004076;28;20520;-72
2022/02/14 01:22:26;;;;;;;17.08;8.98;;;;;;;-139.48;100.00;61774.03;5021377;28;20052;-72
2022/02/14 01:25:11;;;;;;;17.08;8.98;;;;;;;-139.48;100.00;61774.03;5036253;28;20091;-73
2022/02/14 01:27:55;;;;;;;19.15;10.07;;;;;;;-139.48;100.00;61774.03;5021541;28;20068;-73
2022/02/14 01:30:38;;;;;;;20.40;11.50;;;;;;;-139.48;100.00;61774.03;5021182;28;20095;-72
2022/02/14 01:33:22;;;;;;;;;;;;;;;-139.48;100.00;61774.03;5021366;28;20119;-72
2022/02/14 01:36:07;;;;;;;18.45;10.90;;;;;;;-139.48;100.00;61774.03;5021319;28;19924;-73
2022/02/14 01:38:51;;;;;;;18.42;10.07;;;;;;;-139.48;100.00;61774.03;5021100;28;20472;-72
2022/02/14 01:41:35;;;;;;;19.30;10.07;;;;;;;-139.48;100.00;61774.03;5021073;28;20092;-72
2022/02/14 01:44:32;;;;;;;;;;;;;;;-139.48;100.00;61774.03;5036037;28;20133;-72
2022/02/14 01:47:18;;;;;;;22.73;11.80;;;;;;;-139.48;100.00;61774.03;5035872;28;20372;-73
2022/02/14 01:50:04;;;;;;;20.27;11.82;;;;;;;-139.48;100.00;61774.03;5020896;28;20508;-72
2022/02/14 01:52:48;;;;;;;21.58;11.98;;;;;;;-139.48;100.00;61774.03;5020551;28;20528;-71
2022/02/14 01:55:32;;;;;;;;;;;;;;;-139.48;100.00;61774.03;5020936;28;20400;-73
2022/02/14 01:58:16;;;;;;;19.38;11.20;;;;;;;-139.48;100.00;61774.03;5020536;28;20427;-72
2022/02/14 02:01:00;;;;;;;;;;;;;;;-139.48;100.00;61774.03;5007515;28;20088;-71
2022/02/14 02:03:44;;;;;;;22.08;11.25;;;;;;;-139.48;100.00;61774.03;5037040;28;20327;-72
2022/02/14 02:06:28;;;;;;;18.48;10.70;;;;;;;-139.48;100.00;61774.03;5035435;28;20052;-73
2022/02/14 02:09:13;;;;;;;20.92;10.80;;;;;;;-139.48;100.00;61774.03;5020472;28;20182;-73
2022/02/14 02:15:02;;;;;;;23.33;12.45;;;;;;;-139.48;100.00;61774.03;5022830;28;20523;-73
2022/02/14 02:17:46;;;;;;;14.18;6.97;;;;;;;-139.48;100.00;61774.03;5020129;28;20048;-73
2022/02/14 02:20:30;;;;;;;13.82;8.57;;;;;;;-139.48;100.00;61774.03;5020103;28;20146;-72
2022/02/14 02:23:14;;;;;;;;;;;;;;;-139.48;100.00;61774.03;5035702;28;20118;-72
2022/02/14 02:25:58;;;;;;;10.15;7.35;;;;;;;-139.48;100.00;61774.03;5019989;28;20296;-73
2022/02/14 02:28:42;;;;;;;10.80;7.32;;;;;;;-139.48;100.00;61774.03;5035161;28;20047;-72
2022/02/14 02:31:26;;;;;;;12.05;7.35;;;;;;;-139.48;100.00;61774.03;5034969;28;20084;-72
2022/02/14 02:34:10;;;;;;;14.52;8.73;;;;;;;-139.48;100.00;61774.03;5005856;28;20064;-73
2022/02/14 02:36:56;;;;;;;17.30;8.93;;;;;;;-139.48;100.00;61774.03;5034788;28;20468;-72
2022/02/14 02:39:41;;;;;;;14.68;8.73;;;;;;;-139.48;100.00;61774.03;5019961;28;20052;-73
2022/02/14 02:42:25;;;;;;;13.60;8.35;;;;;;;-139.48;100.00;61774.03;5020028;28;20084;-73
2022/02/14 02:45:10;;;;;;;18.13;10.23;;;;;;;-139.48;100.00;61774.03;5005835;28;20075;-73
2022/02/14 02:47:57;;;;;;;16.60;10.57;;;;;;;-139.48;100.00;61774.03;5035042;28;20091;-72
2022/02/14 02:51:02;;;;;;;20.58;11.23;;;;;;;-139.48;100.00;61774.03;5034766;28;20160;-73
2022/02/14 02:53:45;;;;;;;19.30;10.52;;;;;;;-139.48;100.00;61774.03;5022575;28;20049;-73
2022/02/14 02:56:29;;;;;;;21.85;12.73;;;;;;;-139.48;100.00;61774.03;5019377;28;20099;-73
2022/02/14 02:59:14;;;;;;;20.02;12.13;;;;;;;-139.48;100.00;61774.03;5034368;28;20048;-72
2022/02/14 03:01:58;;;;;;;25.00;13.40;;;;;;;-139.48;100.00;61774.03;5034540;28;20052;-73
2022/02/14 03:04:42;;;;;;;24.13;12.25;;;;;;;-139.48;100.00;61774.03;5034199;28;20048;-73
2022/02/14 03:07:26;;;;;;;15.80;10.68;;;;;;;-139.48;100.00;61774.03;5034358;28;20130;-73
2022/02/14 03:10:09;;;;;;;21.00;12.45;;;;;;;-139.48;100.00;61774.03;5005318;28;20448;-73
2022/02/14 03:12:54;;;;;;;21.00;11.00;;;;;;;-139.48;100.00;61774.03;5005550;28;20508;-72
2022/02/14 03:15:38;;;;;;;22.08;10.82;;;;;;;-139.48;100.00;61774.03;5018949;28;20048;-72
2022/02/14 03:18:22;;;;;;;22.25;11.40;;;;;;;-139.48;100.00;61774.03;5019239;28;20076;-73
2022/02/14 03:21:06;;;;;;;;;;;;;;;-139.48;100.00;61774.03;5019382;28;20056;-73
2022/02/14 03:23:52;;;;;;;24.88;12.57;;;;;;;-139.48;100.00;61774.03;5019057;28;20343;-73
2022/02/14 03:26:36;;;;;;;24.27;13.18;;;;;;;-139.48;100.00;61774.03;5019012;28;20044;-73
2022/02/14 03:29:20;;;;;;;21.20;12.30;;;;;;;-139.48;100.00;61774.03;5019010;28;20474;-72
2022/02/14 03:32:03;;;;;;;21.10;12.70;;;;;;;-139.48;100.00;61774.03;5018695;28;20052;-72
2022/02/14 03:34:47;;;;;;;21.98;11.77;;;;;;;-139.48;100.00;61774.03;5018872;28;20127;-73
2022/02/14 03:37:31;;;;;;;21.05;12.82;;;;;;;-139.48;100.00;61774.03;5018541;28;20052;-72
2022/02/14 03:40:16;;;;;;;20.30;11.48;;;;;;;-139.48;100.00;61774.03;5033534;28;20478;-72
2022/02/14 03:43:01;;;;;;;21.42;11.23;;;;;;;-139.48;100.00;61774.03;5004862;28;20194;-73
2022/02/14 03:45:45;;;;;;;18.15;10.65;;;;;;;-139.48;100.00;61774.03;5033342;28;20111;-72
2022/02/14 03:48:29;;;;;;;;;;;;;;;-139.48;100.00;61774.03;5033857;28;20508;-73
2022/02/14 03:51:13;;;;;;;18.30;10.70;;;;;;;-139.48;100.00;61774.03;5018875;28;19920;-72
2022/02/14 03:53:57;;;;;;;16.60;9.65;;;;;;;-139.48;100.00;61774.03;5018348;28;20409;-72
2022/02/14 03:56:41;;;;;;;16.08;10.27;;;;;;;-139.48;100.00;61774.03;5033156;28;20053;-73
2022/02/14 03:59:25;;;;;;;;;;;;;;;-139.48;100.00;61774.03;5018631;28;20446;-73
2022/02/14 04:02:09;;;;;;;17.27;9.57;;;;;;;-139.48;100.00;61774.03;5033690;28;19966;-72
2022/02/14 04:04:55;;;;;;;20.42;8.98;;;;;;;-139.48;100.00;61774.03;5033280;28;20255;-72
2022/02/14 04:07:40;;;;;;;18.45;9.90;;;;;;;-139.48;100.00;61774.03;5033162;28;20099;-72
2022/02/14 04:10:25;;;;;;;13.93;8.48;;;;;;;-139.48;100.00;61774.03;5018260;28;20045;-70
2022/02/14 04:13:10;;;;;;;18.45;9.27;;;;;;;-139.48;100.00;61774.03;5018137;28;20095;-72
2022/02/14 04:15:53;;;;;;;;;;;;;;;-139.48;100.00;61774.03;5018524;28;20120;-72
2022/02/14 04:18:37;;;;;;;20.33;8.80;;;;;;;-139.48;100.00;61774.03;5033225;28;19920;-73
2022/02/14 04:21:21;;;;;;;16.05;9.25;;;;;;;-139.48;100.00;61774.03;5017933;28;20052;-73
2022/02/14 04:24:05;;;;;;;16.60;9.55;;;;;;;-139.48;100.00;61774.03;5033438;28;20118;-72
2022/02/14 04:26:49;;;;;;;;;;;;;;;-139.48;100.00;61774.03;5018457;28;20099;-72
2022/02/14 04:29:33;;;;;;;16.30;7.85;;;;;;;-139.48;100.00;61774.03;5032955;28;19920;-73
2022/02/14 04:32:17;;;;;;;13.98;9.15;;;;;;;-139.48;100.00;61774.03;5017859;28;20358;-73
2022/02/14 04:35:01;;;;;;;14.77;8.05;;;;;;;-139.48;100.00;61774.03;5017996;28;20076;-72
2022/02/14 04:37:45;;;;;;;14.30;8.60;;;;;;;-139.48;100.00;61774.03;5033071;28;20052;-72
2022/02/14 04:40:31;;;;;;;;;;;;;;;-139.48;100.00;61774.03;5033359;28;20516;-73
2022/02/14 04:43:16;;;;;;;16.08;8.20;;;;;;;-139.48;100.00;61774.03;5032881;28;20014;-70
2022/02/14 04:46:00;;;;;;;14.57;8.18;;;;;;;-139.48;100.00;61774.03;5032587;28;20068;-72
2022/02/14 04:48:44;;;;;;;;;;;;;;;-139.48;100.00;61774.03;5018262;28;20052;-73
2022/02/14 04:51:28;;;;;;;15.43;9.33;;;;;;;-139.48;100.00;61774.03;5032826;28;19920;-72
2022/02/14 04:54:11;;;;;;;;;;;;;;;-139.48;100.00;61774.03;5033239;28;20589;-72
2022/02/14 04:56:55;;;;;;;14.95;9.00;;;;;;;-139.48;100.00;61774.03;5020591;28;20352;-72
2022/02/14 04:59:39;;;;;;;17.38;9.75;;;;;;;-139.48;100.00;61774.03;5008072;28;20114;-73
2022/02/14 05:02:23;;;;;;;18.00;9.77;;;;;;;-139.48;100.00;61774.03;5036843;28;20102;-73
2022/02/14 05:05:07;;;;;;;18.92;10.73;;;;;;;-139.48;100.00;61774.03;5021744;28;20052;-73
2022/02/14 05:07:52;;;;;;;18.48;10.60;;;;;;;-139.48;100.00;61774.03;5036499;28;20520;-72
2022/02/14 05:10:35;;;;;;;;;;;;;;;-139.48;100.00;61774.03;5021904;28;20115;-72
2022/02/14 05:13:19;;;;;;;22.33;11.55;;;;;;;-139.48;100.00;61774.03;5036348;28;19935;-71
2022/02/14 05:16:03;;;;;;;19.77;10.38;;;;;;;-139.48;100.00;61774.03;5021482;28;20053;-72
2022/02/14 05:18:47;;;;;;;;;;;;;;;-139.48;100.00;61774.03;5036724;28;20103;-72
2022/02/14 05:21:31;;;;;;;25.27;11.18;;;;;;;-139.48;100.00;61774.03;5036354;28;20288;-72
2022/02/14 05:24:15;;;;;;;;;;;;;;;-139.48;100.00;61774.03;5021598;28;20406;-73
2022/02/14 05:26:59;;;;;;;22.45;11.02;;;;;;;-139.48;100.00;61774.03;5021291;28;20284;-73
2022/02/14 05:29:43;;;;;;;;;;;;;;;-139.48;100.00;61774.03;5036874;28;20584;-73
2022/02/14 05:32:27;;;;;;;14.63;9.07;;;;;;;-139.48;100.00;61774.03;5021430;28;19920;-72
2022/02/14 05:35:11;;;;;;;;;;;;;;;-139.48;100.00;61774.03;5021675;28;20048;-73
2022/02/14 05:37:55;;;;;;;15.25;9.02;;;;;;;-139.48;100.00;61774.03;5021033;28;19920;-73
2022/02/14 05:40:39;;;;;;;;;;;;;;;-139.48;100.00;61774.03;5036896;28;20056;-73
2022/02/14 05:43:23;;;;;;;19.50;9.05;;;;;;;-139.48;100.00;61774.03;5035894;28;19960;-73
2022/02/14 05:46:13;;;;;;;18.45;10.32;;;;;;;-139.48;100.00;61774.03;5036145;28;20163;-72
2022/02/14 05:48:57;;;;;;;21.48;9.73;;;;;;;-139.48;100.00;61774.03;5036189;28;20040;-72
2022/02/14 05:51:41;;;;;;;;;;;;;;;-139.48;100.00;61774.03;5036645;28;20579;-72
2022/02/14 05:54:25;;;;;;;15.55;8.45;;;;;;;-139.48;100.00;61774.03;5035924;28;19971;-72
2022/02/14 05:57:10;;;;;;;;;;;;;;;-139.48;100.00;61774.03;5020802;28;20111;-72
2022/02/14 05:59:54;;;;;;;16.17;9.23;;;;;;;-139.48;100.00;61774.03;5020725;28;20285;-72
2022/02/14 06:02:38;;;;;;;17.58;10.00;;;;;;;-139.48;100.00;61774.03;5007228;28;20118;-72
2022/02/14 06:05:22;;;;;;;15.90;9.35;;;;;;;-139.48;100.00;61774.03;5020294;28;20055;-73
2022/02/14 06:08:06;;;;;;;18.98;10.02;;;;;;;-139.48;100.00;61774.03;5020454;28;20377;-72
2022/02/14 06:10:50;;;;;;;15.93;9.35;;;;;;;-139.48;100.00;61774.03;5035607;28;20052;-73
2022/02/14 06:13:34;;;;;;;16.83;9.20;;;;;;;-139.48;100.00;61774.03;5035526;28;20048;-73
2022/02/14 06:16:18;;;;;;;17.45;10.65;;;;;;;-139.48;100.00;61774.03;5035092;28;20041;-73
2022/02/14 06:19:02;;;;;;;;;;;;;;;-139.48;100.00;61774.03;5035910;28;20090;-71
2022/02/14 06:21:46;;;;;;;13.45;8.18;;;;;;;-139.48;100.00;61774.03;5006465;28;19927;-72
2022/02/14 06:24:30;;;;;;;;;;;;;;;-139.48;100.00;61774.03;5020744;28;20099;-71
2022/02/14 06:27:14;;;;;;;16.35;9.43;;;;;;;-139.48;100.00;61774.03;5019946;28;20292;-72
2022/02/14 06:29:58;;;;;;;15.13;8.68;;;;;;;-139.48;100.00;61774.03;5020500;28;20068;-73
2022/02/14 06:32:42;;;;;;;14.82;9.40;;;;;;;-139.48;100.00;61774.03;5006247;28;20084;-72
2022/02/14 06:35:26;;;;;;;;;;;;;;;-139.48;100.00;61774.03;5020406;28;20457;-71
2022/02/14 06:38:10;;;;;;;17.20;9.07;;;;;;;-139.48;100.00;61774.03;5019841;28;19983;-73
2022/02/14 06:40:54;;;;;;;16.55;9.38;;;;;;;-139.48;100.00;61774.03;5035129;28;20048;-72
2022/02/14 06:43:38;;;;;;;;;;;;;;;-139.48;100.00;61774.03;5020554;28;20047;-71
2022/02/14 06:46:22;;;;;;;19.08;9.27;;;;;;;-139.48;100.00;61774.03;5019625;28;19963;-70
2022/02/14 06:49:06;;;;;;;19.45;9.13;;;;;;;-139.48;100.00;61774.03;5034844;28;20398;-71
2022/02/14 06:51:51;;;;;;;19.02;8.77;;;;;;;-139.48;100.00;61774.03;5005971;28;20060;-71
2022/02/14 06:54:35;;;;;;;16.17;9.45;;;;;;;-139.48;100.00;61774.03;5034740;28;20055;-73
2022/02/14 06:57:18;;;;;;;;;;;;;;;-139.48;100.00;61774.03;5034723;28;20415;-72
2022/02/14 07:00:10;;;;;;;16.00;9.15;;;;;;;-139.48;100.00;61774.03;5019873;28;19924;-73
2022/02/14 07:02:54;;;;;;;14.93;8.90;;;;;;;-139.48;100.00;61774.03;5019576;28;20052;-73
2022/02/14 07:05:40;;;;;;;15.82;8.80;;;;;;;-139.48;100.00;61774.03;5005542;28;20362;-72
2022/02/14 07:08:24;;;;;;;14.50;8.48;;;;;;;-139.48;100.00;61774.03;5019815;28;20409;-72
2022/02/14 07:11:08;;;;;;;;;;;;;;;-139.48;100.00;61774.03;5019565;28;20044;-71
2022/02/14 07:13:52;;;;;;;16.40;8.65;;;;;;;-139.48;100.00;61774.03;5019471;28;19920;-71
2022/02/14 07:16:36;;;;;;;;;;;;;;;-139.48;100.00;61774.03;5006108;28;20547;-71
2022/02/14 07:19:20;;;;;;;15.43;9.38;;;;;;;-139.48;100.00;61774.03;5018831;28;20388;-73
2022/02/14 07:22:05;;;;;;;;;;;;;;;-139.48;100.00;61774.03;5034668;28;20167;-73
2022/02/14 07:24:49;;;;;;;15.00;9.20;;;;;;;-139.48;100.00;61774.03;5034141;28;20329;-71
2022/02/14 07:27:34;;;;;;;17.33;9.65;;;;;;;-139.48;100.00;61774.03;5018871;28;20084;-73
2022/02/14 07:30:18;;;;;;;18.90;10.50;;;;;;;-139.48;100.00;61774.03;5018822;28;20488;-73
2022/02/14 07:33:02;;;;;;;;;;;;;;;-139.48;100.00;61774.03;5020029;28;20048;-73
2022/02/14 07:35:47;;;;;;;18.40;9.67;;;;;;;-139.48;100.00;61774.03;5004964;28;20292;-73
2022/02/14 07:38:31;;;;;;;14.65;9.80;;;;;;;-139.48;100.00;61774.03;5005106;28;20048;-73
2022/02/14 07:41:15;;;;;;;26.92;12.07;;;;;;;-139.48;100.00;61774.03;5019140;28;20190;-73
2022/02/14 07:44:00;;;;;;;23.98;12.23;;;;;;;-139.48;100.00;61774.03;5033517;28;20091;-72
2022/02/14 07:46:44;;;;;;;19.35;11.80;;;;;;;-139.48;100.00;61774.03;5033451;28;20074;-73
2022/02/14 07:49:28;;;;;;;27.17;14.40;;;;;;;-139.48;100.00;61774.03;5018789;28;20051;-74
2022/02/14 07:52:13;;;;;;;27.67;14.35;;;;;;;-139.48;100.00;61774.03;5033711;28;20048;-74
2022/02/14 07:54:57;;;;;;;35.50;16.92;;;;;;;-139.48;100.00;61774.03;5018592;28;20051;-73
2022/02/14 07:57:42;;;;;;;34.25;15.90;;;;;;;-139.48;100.00;61774.03;5018445;28;20075;-71
2022/02/14 08:00:25;;;;;;;;;;;;;;;-139.48;100.00;61774.03;5019036;28;20056;-70
2022/02/14 08:03:09;;;;;;;40.22;16.70;;;;;;;-139.48;100.00;61774.03;5033588;28;19967;-73
2022/02/14 08:05:53;;;;;;;41.22;16.73;;;;;;;-139.48;100.00;61774.03;5040931;22;20044;-75
2022/02/14 08:08:38;;;;;;;38.88;15.93;;;;;;;-139.48;100.00;61774.03;5018081;28;20516;-75
2022/02/14 08:11:22;;;;;;;42.33;16.70;;;;;;;-139.48;100.00;61774.03;5033283;28;20099;-75
2022/02/14 08:14:05;;;;;;;35.17;14.82;;;;;;;-139.48;100.00;61774.03;5004395;28;20409;-75
2022/02/14 08:16:49;;;;;;;38.15;17.38;;;;;;;-139.48;100.00;61774.03;5017985;28;20076;-75
2022/02/14 08:19:34;;;;;;;31.67;15.95;;;;;;;-139.48;100.00;61774.03;5017929;28;20048;-75
2022/02/14 08:22:17;;;;;;;30.83;16.73;;;;;;;-139.48;100.00;61774.03;5004219;28;20107;-75
2022/02/14 08:25:02;;;;;;;31.40;16.83;;;;;;;-139.48;100.00;61774.03;5004070;28;20516;-76
2022/02/14 08:27:46;;;;;;;38.28;17.67;;;;;;;-139.48;100.00;61774.03;5032768;28;20052;-76
2022/02/14 08:30:32;;;;;;;39.53;16.63;;;;;;;-139.48;100.00;61774.03;5016967;28;20118;-75
2022/02/14 08:33:16;;;;;;;38.10;17.02;;;;;;;-139.48;100.00;61774.03;5032769;28;20421;-75
2022/02/14 08:36:00;;;;;;;38.08;19.50;;;;;;;-139.48;100.00;61774.03;5018098;28;20075;-75
2022/02/14 08:38:44;;;;;;;44.33;19.63;;;;;;;-139.48;100.00;61774.03;5032764;28;20052;-74
2022/02/14 08:41:28;;;;;;;;;;;;;;;-139.48;100.00;61774.03;5018087;28;20052;-75
2022/02/14 08:44:12;;;;;;;43.10;20.90;;;;;;;-139.48;100.00;61774.03;5032646;28;20372;-75
2022/02/14 08:46:56;;;;;;;37.75;19.27;;;;;;;-139.48;100.00;61774.03;5017603;28;20044;-75
2022/02/14 08:49:40;;;;;;;;;;;;;;;-139.48;100.00;61774.03;5018098;28;20528;-75
2022/02/14 08:52:27;;;;;;;36.95;17.63;;;;;;;-139.48;100.00;61774.03;5031785;28;19919;-75
2022/02/14 08:55:13;;;;;;;33.60;17.88;;;;;;;-139.48;100.00;61774.03;5032526;28;20645;-75
2022/02/14 08:57:57;;;;;;;38.10;16.73;;;;;;;-139.48;100.00;61774.03;5032831;28;20056;-75
2022/02/14 09:00:41;;;;;;;;;;;;;;;-139.48;100.00;61774.03;5018090;28;20047;-76
2022/02/14 09:03:25;;;;;;;32.08;16.40;;;;;;;-139.48;100.00;61774.03;5031433;28;19920;-73
2022/02/14 09:06:09;;;;;;;32.03;16.55;;;;;;;-139.48;100.00;61774.03;5017220;28;20056;-75
2022/02/14 09:08:54;;;;;;;33.80;16.73;;;;;;;-139.48;100.00;61774.03;5017916;28;20064;-75
2022/02/14 09:11:41;;;;;;;38.60;15.95;;;;;;;-139.48;100.00;61774.03;5032780;28;20128;-76
2022/02/14 09:14:24;;;;;;;30.50;14.68;;;;;;;-139.48;100.00;61774.03;5017725;28;20547;-73
2022/02/14 09:17:08;;;;;;;;;;;;;;;-139.48;100.00;61774.03;5017793;28;20098;-75
2022/02/14 09:19:53;;;;;;;30.43;15.87;;;;;;;-139.48;100.00;61774.03;5031448;28;19920;-75
2022/02/14 09:22:37;;;;;;;31.70;14.27;;;;;;;-139.48;100.00;61774.03;5017727;28;20143;-75
2022/02/14 09:25:23;;;;;;;22.88;12.32;;;;;;;-139.48;100.00;61774.03;5017174;28;20096;-76
2022/02/14 09:28:08;;;;;;;24.45;13.57;;;;;;;-139.48;100.00;61774.03;5032637;28;20091;-76
2022/02/14 09:30:52;;;;;;;24.67;12.63;;;;;;;-139.48;100.00;61774.03;5003459;28;20476;-75
2022/02/14 09:33:36;;;;;;;25.83;11.73;;;;;;;-139.48;100.00;61774.03;5017510;28;20072;-75
2022/02/14 09:36:20;;;;;;;20.00;10.25;;;;;;;-139.48;100.00;61774.03;5032560;28;20133;-76
2022/02/14 09:39:05;;;;;;;15.98;10.18;;;;;;;-139.48;100.00;61774.03;5032533;28;20056;-75
2022/02/14 09:41:49;;;;;;;22.17;10.68;;;;;;;-139.48;100.00;61774.03;5033345;28;20049;-75
2022/02/14 09:44:33;;;;;;;18.73;10.10;;;;;;;-139.48;100.00;61774.03;5020871;28;20060;-75
2022/02/14 09:47:17;;;;;;;18.48;9.23;;;;;;;-139.48;100.00;61774.03;5035823;28;20111;-75
2022/02/14 09:50:02;;;;;;;17.35;9.50;;;;;;;-139.48;100.00;61774.03;5036159;28;20071;-75
2022/02/14 09:52:46;;;;;;;20.08;8.85;;;;;;;-139.48;100.00;61774.03;5035805;28;20141;-75
2022/02/14 09:55:31;;;;;;;15.60;8.93;;;;;;;-139.48;100.00;61774.03;5020784;28;20456;-75
2022/02/14 09:58:15;;;;;;;12.77;8.05;;;;;;;-139.48;100.00;61774.03;5006952;28;20052;-75
2022/02/14 10:00:59;;;;;;;18.80;8.75;;;;;;;-139.48;100.00;61774.03;5020726;28;20056;-75
2022/02/14 10:03:53;;;;;;;12.85;7.22;;;;;;;-139.48;100.00;61774.03;5020476;28;20095;-75
2022/02/14 10:06:39;;;;;;;15.05;7.85;;;;;;;-139.48;100.00;61774.03;5035184;28;20052;-75
2022/02/14 10:09:24;;;;;;;18.25;8.02;;;;;;;-139.48;100.00;61774.03;5020375;28;20519;-75
2022/02/14 10:12:12;;;;;;;22.92;7.13;;;;;;;-139.48;100.00;61774.03;5034419;28;20056;-74
2022/02/14 10:15:03;;;;;;;14.45;6.75;;;;;;;-139.48;100.00;61774.03;5006880;28;20048;-75
2022/02/14 10:17:49;;;;;;;15.02;7.00;;;;;;;-139.48;100.00;61774.03;5035186;28;20068;-75
2022/02/14 10:20:33;;;;;;;15.18;6.78;;;;;;;-139.48;100.00;61774.03;5006682;28;20048;-75
2022/02/14 10:23:17;;;;;;;9.40;6.40;;;;;;;-139.48;100.00;61774.03;5020101;28;20512;-75
2022/02/14 10:26:01;;;;;;;;;;;;;;;-139.48;100.00;61774.03;5035407;28;20041;-75
2022/02/14 10:28:46;;;;;;;13.30;7.22;;;;;;;-139.48;100.00;61774.03;5034281;28;19967;-72
2022/02/14 10:31:39;;;;;;;11.40;6.50;;;;;;;-139.48;100.00;61774.03;5006260;28;20055;-75
2022/02/14 10:34:48;;;;;;;17.65;6.68;;;;;;;-139.48;100.00;61774.03;5006020;28;20052;-75
2022/02/14 10:37:46;;;;;;;13.13;6.07;;;;;;;-139.48;100.00;61774.03;5020065;28;20125;-75
2022/02/14 10:40:35;;;;;;;10.25;5.30;;;;;;;-139.48;100.00;61774.03;5019963;28;20500;-73
2022/02/14 10:43:27;;;;;;;15.02;5.55;;;;;;;-139.48;100.00;61774.03;5020396;28;20051;-75
2022/02/14 10:46:18;;;;;;;9.50;5.32;;;;;;;-139.48;100.00;61774.03;5019479;28;20504;-75
2022/02/14 10:49:03;;;;;;;13.35;4.82;;;;;;;-139.48;100.00;61774.03;5035205;28;20453;-76
2022/02/14 10:51:47;;;;;;;15.15;5.20;;;;;;;-139.48;100.00;61774.03;5019614;28;20182;-75
2022/02/14 10:54:35;;;;;;;;;;;;;;;-139.48;100.00;61774.03;5033980;28;20063;-76
2022/02/14 10:57:28;;;;;;;9.20;4.32;;;;;;;-139.48;100.00;61774.03;5033561;28;19919;-76
2022/02/14 11:00:16;;;;;;;6.43;4.10;;;;;;;-139.48;100.00;61774.03;5005739;28;20048;-76
2022/02/14 11:03:06;;;;;;;7.78;3.08;;;;;;;-139.48;100.00;61774.03;5019557;28;20048;-76
2022/02/14 11:05:51;;;;;;;7.00;2.60;;;;;;;-139.48;100.00;61774.03;5019743;28;20052;-73
2022/02/14 11:08:36;;;;;;;8.95;2.45;;;;;;;-139.48;100.00;61774.03;5019423;28;20137;-75
2022/02/14 11:11:21;;;;;;;5.95;2.10;;;;;;;-139.48;100.00;61774.03;5019608;28;20044;-76
2022/02/14 11:14:06;;;;;;;3.50;1.75;;;;;;;-139.48;100.00;61774.03;5019278;28;20136;-75
2022/02/14 11:16:51;;;;;;;8.25;2.67;;;;;;;-139.48;100.00;61774.03;5033803;28;20052;-76
2022/02/14 11:19:36;;;;;;;3.70;1.98;;;;;;;-139.48;100.00;61774.03;5019150;28;20048;-76
2022/02/14 11:22:22;;;;;;;7.00;2.28;;;;;;;-139.48;100.00;61774.03;5018883;28;20128;-76
2022/02/14 11:25:13;;;;;;;7.93;1.90;;;;;;;-139.48;100.00;61774.03;5019113;28;20048;-75
2022/02/14 11:28:12;;;;;;;2.88;1.88;;;;;;;-139.48;100.00;61774.03;5018642;28;20056;-75
2022/02/14 11:31:06;;;;;;;7.68;1.90;;;;;;;-139.48;100.00;61774.03;5034102;28;20135;-75
2022/02/14 11:33:53;;;;;;;10.00;2.35;;;;;;;-139.48;100.00;61774.03;5034122;28;20092;-76
2022/02/14 11:36:38;;;;;;;3.53;1.88;;;;;;;-139.48;100.00;61774.03;5018424;28;20052;-76
2022/02/14 11:39:29;;;;;;;1.92;1.65;;;;;;;-139.48;100.00;61774.03;5004657;28;20087;-75
2022/02/14 11:42:13;;;;;;;5.57;2.20;;;;;;;-139.48;100.00;61774.03;5004766;28;20099;-75
2022/02/14 11:45:11;;;;;;;9.07;2.20;;;;;;;-139.48;100.00;61774.03;5018803;28;20052;-76
2022/02/14 11:47:56;;;;;;;5.47;2.20;;;;;;;-139.48;100.00;61774.03;5033528;28;20064;-76
2022/02/14 11:50:41;;;;;;;3.47;1.70;;;;;;;-139.48;100.00;61774.03;5033208;28;20095;-76
2022/02/14 11:53:33;;;;;;;5.60;1.88;;;;;;;-139.48;100.00;61774.03;5033294;28;20091;-73
2022/02/14 11:56:17;;;;;;;5.60;2.08;;;;;;;-139.48;100.00;61774.03;5033229;28;20118;-75
2022/02/14 11:59:10;;;;;;;4.20;1.88;;;;;;;-139.48;100.00;61774.03;5033166;28;20500;-76
2022/02/14 12:02:04;;;;;;;9.73;2.10;;;;;;;-139.48;100.00;61774.03;5033288;28;20056;-75
2022/02/14 12:04:49;;;;;;;4.97;1.73;;;;;;;-139.48;100.00;61774.03;5018132;28;20047;-75
2022/02/14 12:07:38;;;;;;;5.97;2.38;;;;;;;-139.48;100.00;61774.03;5018100;28;20083;-75
2022/02/14 12:10:26;;;;;;;6.15;1.98;;;;;;;-139.48;100.00;61774.03;5033030;28;20107;-76
2022/02/14 12:13:13;;;;;;;7.40;2.15;;;;;;;-139.48;100.00;61774.03;5017886;28;20044;-75
2022/02/14 12:21:47;;;;;;;4.38;2.13;;;;;;;-139.48;100.00;61774.03;5032987;28;20048;-76
2022/02/14 12:24:32;;;;;;;3.60;1.83;;;;;;;-139.48;100.00;61774.03;5018231;28;20052;-75
2022/02/14 12:27:16;;;;;;;8.00;1.98;;;;;;;-139.48;100.00;61774.03;5032625;28;20052;-74
2022/02/14 12:30:16;;;;;;;6.57;1.80;;;;;;;-139.48;100.00;61774.03;5003995;28;20053;-74
2022/02/14 12:32:59;;;;;;;3.58;1.60;;;;;;;-139.48;100.00;61774.03;5032885;28;20048;-75
2022/02/14 12:35:52;;;;;;;7.05;2.03;;;;;;;-139.48;100.00;61774.03;5017559;28;20045;-74
2022/02/14 12:38:39;;;;;;;6.38;2.17;;;;;;;-139.48;100.00;61774.03;5017841;28;20056;-75